createdAt,value
2019-05-25T00:00:19.495Z,16.70
2019-05-25T00:02:45.645Z,12.80
2019-05-25T00:05:12.229Z,17.97
2019-05-25T00:07:38.335Z,15.77
2019-05-25T00:10:05.321Z,15.27
2019-05-25T00:12:31.512Z,18.93
2019-05-25T00:14:57.578Z,22.23
2019-05-25T00:17:23.812Z,16.33
2019-05-25T00:19:51.033Z,14.80
2019-05-25T00:22:17.243Z,13.60
2019-05-25T00:24:43.319Z,14.53
2019-05-25T00:27:09.508Z,15.90
2019-05-25T00:29:35.622Z,15.33
2019-05-25T00:32:01.910Z,16.77
2019-05-25T00:34:28.143Z,13.97
2019-05-25T00:36:55.475Z,17.43
2019-05-25T00:39:21.904Z,15.23
2019-05-25T00:41:48.004Z,18.73
2019-05-25T00:44:14.120Z,16.23
2019-05-25T00:46:40.304Z,17.17
2019-05-25T00:49:06.402Z,17.40
2019-05-25T00:51:32.516Z,17.30
2019-05-25T00:53:58.693Z,15.90
2019-05-25T00:56:24.794Z,19.07
2019-05-25T00:58:51.077Z,16.43
2019-05-25T01:01:17.413Z,16.30
2019-05-25T01:03:43.496Z,15.50
2019-05-25T01:06:09.689Z,18.50
2019-05-25T01:08:36.105Z,18.00
2019-05-25T01:11:02.292Z,15.77
2019-05-25T01:13:28.392Z,16.77
2019-05-25T01:15:54.616Z,18.67
2019-05-25T01:18:20.840Z,19.30
2019-05-25T01:20:47.130Z,20.43
2019-05-25T01:23:13.349Z,16.87
2019-05-25T01:25:40.470Z,16.23
2019-05-25T01:28:06.547Z,17.00
2019-05-25T01:30:32.974Z,17.73
2019-05-25T01:32:59.249Z,19.17
2019-05-25T01:35:25.457Z,19.47
2019-05-25T01:37:51.585Z,20.37
2019-05-25T01:40:19.161Z,24.37
2019-05-25T01:42:45.365Z,20.57
2019-05-25T01:45:11.766Z,18.63
2019-05-25T01:47:37.984Z,19.50
2019-05-25T01:50:05.013Z,17.83
2019-05-25T01:52:31.118Z,18.37
2019-05-25T01:55:00.270Z,18.37
2019-05-25T01:57:25.243Z,19.30
2019-05-25T01:59:51.357Z,17.93
2019-05-25T02:02:17.581Z,19.17
2019-05-25T02:04:43.707Z,18.23
2019-05-25T02:07:10.036Z,19.43
2019-05-25T02:09:36.139Z,18.93
2019-05-25T02:12:02.520Z,18.03
2019-05-25T02:14:29.757Z,18.33
2019-05-25T02:16:55.866Z,18.37
2019-05-25T02:19:21.982Z,19.63
2019-05-25T02:21:48.207Z,20.13
2019-05-25T02:24:14.281Z,21.47
2019-05-25T02:26:40.432Z,19.93
2019-05-25T02:29:06.725Z,22.33
2019-05-25T02:31:32.919Z,19.93
2019-05-25T02:33:59.153Z,18.77
2019-05-25T02:36:25.268Z,19.60
2019-05-25T02:38:51.547Z,19.87
2019-05-25T02:41:17.644Z,20.83
2019-05-25T02:43:43.742Z,23.70
2019-05-25T02:46:09.932Z,23.03
2019-05-25T02:48:36.033Z,25.07
2019-05-25T02:51:03.322Z,23.67
2019-05-25T02:53:29.520Z,20.37
2019-05-25T02:55:55.584Z,21.67
2019-05-25T02:58:21.811Z,20.83
2019-05-25T03:00:47.965Z,25.50
2019-05-25T03:03:14.263Z,24.87
2019-05-25T03:05:41.157Z,22.43
2019-05-25T03:08:07.292Z,26.23
2019-05-25T03:10:34.894Z,22.97
2019-05-25T03:13:02.019Z,23.17
2019-05-25T03:15:28.189Z,24.23
2019-05-25T03:17:54.706Z,22.90
2019-05-25T03:20:20.976Z,26.27
2019-05-25T03:22:47.078Z,23.37
2019-05-25T03:25:13.412Z,29.50
2019-05-25T03:27:39.495Z,24.53
2019-05-25T03:30:06.772Z,26.13
2019-05-25T03:32:32.874Z,25.10
2019-05-25T03:34:58.973Z,25.07
2019-05-25T03:37:25.160Z,25.27
2019-05-25T03:39:51.256Z,23.20
2019-05-25T03:42:17.376Z,21.83
2019-05-25T03:44:43.455Z,20.50
2019-05-25T03:47:09.665Z,21.20
2019-05-25T03:49:35.768Z,24.57
2019-05-25T03:52:02.079Z,22.40
2019-05-25T03:54:28.297Z,22.47
2019-05-25T03:56:54.359Z,26.13
2019-05-25T03:59:20.663Z,21.60
2019-05-25T04:01:46.777Z,20.23
2019-05-25T04:04:12.966Z,21.17
2019-05-25T04:06:39.038Z,24.43
2019-05-25T04:09:06.387Z,21.03
2019-05-25T04:11:32.866Z,18.40
2019-05-25T04:13:58.980Z,21.50
2019-05-25T04:16:25.203Z,22.93
2019-05-25T04:18:51.428Z,22.90
2019-05-25T04:21:17.503Z,20.20
2019-05-25T04:23:43.603Z,21.93
2019-05-25T04:26:22.232Z,19.53
2019-05-25T04:28:37.804Z,19.87
2019-05-25T04:31:04.009Z,21.93
2019-05-25T04:33:30.199Z,19.97
2019-05-25T04:35:56.343Z,17.90
2019-05-25T04:38:22.456Z,17.43
2019-05-25T04:40:48.624Z,19.60
2019-05-25T04:43:14.724Z,20.17
2019-05-25T04:45:40.798Z,21.73
2019-05-25T04:48:06.915Z,19.30
2019-05-25T04:50:33.026Z,18.30
2019-05-25T04:53:00.380Z,19.60
2019-05-25T04:55:26.497Z,21.97
2019-05-25T04:57:52.575Z,21.50
2019-05-25T05:00:18.769Z,21.00
2019-05-25T05:02:44.944Z,20.10
2019-05-25T05:05:12.059Z,21.77
2019-05-25T05:07:38.154Z,21.83
2019-05-25T05:10:05.448Z,21.67
2019-05-25T05:12:31.677Z,22.67
2019-05-25T05:14:57.794Z,21.40
2019-05-25T05:17:23.887Z,20.50
2019-05-25T05:19:50.085Z,21.57
2019-05-25T05:22:16.180Z,21.83
2019-05-25T05:24:42.409Z,20.47
2019-05-25T05:27:08.589Z,18.60
2019-05-25T05:29:34.682Z,22.23
2019-05-25T05:32:00.903Z,19.97
2019-05-25T05:34:27.121Z,19.13
2019-05-25T05:36:54.707Z,21.47
2019-05-25T05:39:21.561Z,22.03
2019-05-25T05:41:48.746Z,19.97
2019-05-25T05:44:17.457Z,21.73
2019-05-25T05:46:45.390Z,20.83
2019-05-25T05:49:12.549Z,20.57
2019-05-25T05:51:39.546Z,21.77
2019-05-25T05:54:05.868Z,21.80
2019-05-25T05:56:32.179Z,23.53
2019-05-25T05:58:58.971Z,22.63
2019-05-25T06:01:25.190Z,27.50
2019-05-25T06:03:51.383Z,21.57
2019-05-25T06:06:17.589Z,26.53
2019-05-25T06:08:43.643Z,22.07
2019-05-25T06:11:09.849Z,23.37
2019-05-25T06:13:35.947Z,20.83
2019-05-25T06:16:02.225Z,24.93
2019-05-25T06:18:28.365Z,22.37
2019-05-25T06:20:54.442Z,23.50
2019-05-25T06:23:21.736Z,25.13
2019-05-25T06:25:48.049Z,22.13
2019-05-25T06:28:14.154Z,20.73
2019-05-25T06:30:40.273Z,21.87
2019-05-25T06:33:06.380Z,23.47
2019-05-25T06:35:32.573Z,20.47
2019-05-25T06:37:58.860Z,20.17
2019-05-25T06:40:24.889Z,19.23
2019-05-25T06:42:51.098Z,21.77
2019-05-25T06:45:18.562Z,21.47
2019-05-25T06:47:44.870Z,23.10
2019-05-25T06:50:11.404Z,23.00
2019-05-25T06:52:37.580Z,22.43
2019-05-25T06:55:05.212Z,22.43
2019-05-25T06:57:42.718Z,24.70
2019-05-25T06:59:59.695Z,22.97
2019-05-25T07:02:25.872Z,22.13
2019-05-25T07:04:52.084Z,18.07
2019-05-25T07:07:18.246Z,19.60
2019-05-25T07:09:44.474Z,19.13
2019-05-25T07:12:10.617Z,20.17
2019-05-25T07:14:36.853Z,18.47
2019-05-25T07:17:03.343Z,18.50
2019-05-25T07:19:29.536Z,17.67
2019-05-25T07:21:55.785Z,19.83
2019-05-25T07:24:22.003Z,19.90
2019-05-25T07:26:48.301Z,16.87
2019-05-25T07:29:14.546Z,19.07
2019-05-25T07:31:40.610Z,19.10
2019-05-25T07:34:06.833Z,16.47
2019-05-25T07:36:33.057Z,17.67
2019-05-25T07:38:59.235Z,17.87
2019-05-25T07:41:25.505Z,17.83
2019-05-25T07:43:51.688Z,19.77
2019-05-25T07:46:18.012Z,18.17
2019-05-25T07:48:44.350Z,15.83
2019-05-25T07:51:10.531Z,16.37
2019-05-25T07:53:36.857Z,19.77
2019-05-25T07:56:03.047Z,16.03
2019-05-25T07:58:29.289Z,17.20
2019-05-25T08:00:55.609Z,16.70
2019-05-25T08:03:21.751Z,15.30
2019-05-25T08:05:47.989Z,14.33
2019-05-25T08:08:14.113Z,16.03
2019-05-25T08:10:40.448Z,14.63
2019-05-25T08:13:06.750Z,17.03
2019-05-25T08:15:32.965Z,16.97
2019-05-25T08:17:59.177Z,15.97
2019-05-25T08:20:25.302Z,15.20
2019-05-25T08:22:51.491Z,16.27
2019-05-25T08:25:17.816Z,16.67
2019-05-25T08:27:44.042Z,14.97
2019-05-25T08:30:10.932Z,19.17
2019-05-25T08:32:37.298Z,19.93
2019-05-25T08:35:06.312Z,15.77
2019-05-25T08:37:32.561Z,16.33
2019-05-25T08:39:58.763Z,16.47
2019-05-25T08:42:25.027Z,16.57
2019-05-25T08:44:51.286Z,16.57
2019-05-25T08:47:17.478Z,17.80
2019-05-25T08:49:43.740Z,18.03
2019-05-25T08:52:10.101Z,17.20
2019-05-25T08:54:36.198Z,15.43
2019-05-25T08:57:02.622Z,15.97
2019-05-25T08:59:28.928Z,14.53
2019-05-25T09:01:55.129Z,17.23
2019-05-25T09:04:21.361Z,15.20
2019-05-25T09:06:47.573Z,14.90
2019-05-25T09:09:13.747Z,15.43
2019-05-25T09:11:39.876Z,14.00
2019-05-25T09:14:06.225Z,15.33
2019-05-25T09:16:32.644Z,14.40
2019-05-25T09:18:58.879Z,16.27
2019-05-25T09:21:25.097Z,13.73
2019-05-25T09:23:51.428Z,17.77
2019-05-25T09:26:17.663Z,14.53
2019-05-25T09:28:43.871Z,17.40
2019-05-25T09:31:09.997Z,15.43
2019-05-25T09:33:36.099Z,15.93
2019-05-25T09:36:02.422Z,17.77
2019-05-25T09:38:28.706Z,15.30
2019-05-25T09:40:55.020Z,16.47
2019-05-25T09:43:21.113Z,17.00
2019-05-25T09:45:47.353Z,16.27
2019-05-25T09:48:13.635Z,15.80
2019-05-25T09:50:39.768Z,18.17
2019-05-25T09:53:06.189Z,14.57
2019-05-25T09:55:32.508Z,18.53
2019-05-25T09:57:58.825Z,13.17
2019-05-25T10:00:25.136Z,15.33
2019-05-25T10:02:51.846Z,17.83
2019-05-25T10:05:18.245Z,17.37
2019-05-25T10:07:44.355Z,16.03
2019-05-25T10:10:11.163Z,15.20
2019-05-25T10:12:37.454Z,15.30
2019-05-25T10:15:06.869Z,18.17
2019-05-25T10:17:32.966Z,16.87
2019-05-25T10:19:59.176Z,14.40
2019-05-25T10:22:25.571Z,18.33
2019-05-25T10:24:52.484Z,14.30
2019-05-25T10:27:18.753Z,17.00
2019-05-25T10:29:45.011Z,14.50
2019-05-25T10:32:11.203Z,15.23
2019-05-25T10:34:37.498Z,16.10
2019-05-25T10:37:03.864Z,17.87
2019-05-25T10:39:30.162Z,15.23
2019-05-25T10:41:56.375Z,17.73
2019-05-25T10:44:22.583Z,17.77
2019-05-25T10:46:48.680Z,16.90
2019-05-25T10:49:15.019Z,15.13
2019-05-25T10:51:41.110Z,17.93
2019-05-25T10:54:07.289Z,17.70
2019-05-25T10:56:34.615Z,15.90
2019-05-25T10:59:00.947Z,15.43
2019-05-25T11:01:27.256Z,14.53
2019-05-25T11:03:53.533Z,13.63
2019-05-25T11:06:19.990Z,15.53
2019-05-25T11:08:46.233Z,14.90
2019-05-25T11:11:12.471Z,15.98
2019-05-25T11:13:38.581Z,17.17
2019-05-25T11:16:04.762Z,19.05
2019-05-25T11:18:31.047Z,15.68
2019-05-25T11:20:57.158Z,14.28
2019-05-25T11:23:25.390Z,19.67
2019-05-25T11:25:51.707Z,14.43
2019-05-25T11:28:17.823Z,15.33
2019-05-25T11:30:44.107Z,15.30
2019-05-25T11:33:10.178Z,15.50
2019-05-25T11:35:36.509Z,14.87
2019-05-25T11:38:02.807Z,16.43
2019-05-25T11:40:29.151Z,12.23
2019-05-25T11:42:55.226Z,13.23
2019-05-25T11:45:21.957Z,14.65
2019-05-25T11:47:48.056Z,16.67
2019-05-25T11:50:15.645Z,14.97
2019-05-25T11:52:41.896Z,16.62
2019-05-25T11:55:08.625Z,15.68
2019-05-25T11:57:34.797Z,15.13
2019-05-25T12:00:01.424Z,13.88
2019-05-25T12:02:27.617Z,13.93
2019-05-25T12:04:54.300Z,17.27
2019-05-25T12:07:20.505Z,14.58
2019-05-25T12:09:46.642Z,14.15
2019-05-25T12:12:13.065Z,14.27
2019-05-25T12:14:40.171Z,16.23
2019-05-25T12:17:06.411Z,14.07
2019-05-25T12:19:33.844Z,14.87
2019-05-25T12:22:00.120Z,15.90
2019-05-25T12:24:26.256Z,14.95
2019-05-25T12:26:52.540Z,15.35
2019-05-25T12:29:18.789Z,13.67
2019-05-25T12:31:44.915Z,15.27
2019-05-25T12:34:11.131Z,15.03
2019-05-25T12:36:37.306Z,13.87
2019-05-25T12:39:05.233Z,14.68
2019-05-25T12:41:31.464Z,14.50
2019-05-25T12:43:57.674Z,16.50
2019-05-25T12:46:23.818Z,14.85
2019-05-25T12:48:49.903Z,17.30
2019-05-25T12:51:17.814Z,12.27
2019-05-25T12:53:44.369Z,15.08
2019-05-25T12:56:10.478Z,16.23
2019-05-25T12:58:36.805Z,14.67
2019-05-25T13:01:02.987Z,17.00
2019-05-25T13:03:29.195Z,14.63
2019-05-25T13:05:56.412Z,14.55
2019-05-25T13:08:22.609Z,13.38
2019-05-25T13:10:48.926Z,16.07
2019-05-25T13:13:15.113Z,14.10
2019-05-25T13:15:41.370Z,17.07
2019-05-25T13:18:07.513Z,13.05
2019-05-25T13:20:33.631Z,15.45
2019-05-25T13:22:59.833Z,16.67
2019-05-25T13:25:26.125Z,12.98
2019-05-25T13:27:52.311Z,14.33
2019-05-25T13:30:18.808Z,15.00
2019-05-25T13:32:45.153Z,17.02
2019-05-25T13:35:13.002Z,15.20
2019-05-25T13:37:39.328Z,15.10
2019-05-25T13:40:06.041Z,15.20
2019-05-25T13:42:32.224Z,17.13
2019-05-25T13:44:58.634Z,16.90
2019-05-25T13:47:24.736Z,13.30
2019-05-25T13:49:50.937Z,15.58
2019-05-25T13:52:17.154Z,14.15
2019-05-25T13:54:43.358Z,12.58
2019-05-25T13:57:09.518Z,12.80
2019-05-25T13:59:35.697Z,15.10
2019-05-25T14:02:02.027Z,12.15
2019-05-25T14:04:28.234Z,14.28
2019-05-25T14:06:54.440Z,12.47
2019-05-25T14:09:20.755Z,12.07
2019-05-25T14:11:47.005Z,12.83
2019-05-25T14:14:13.113Z,13.03
2019-05-25T14:16:39.386Z,13.70
2019-05-25T14:19:05.729Z,14.78
2019-05-25T14:21:31.808Z,16.00
2019-05-25T14:23:58.058Z,12.30
2019-05-25T14:26:24.546Z,14.25
2019-05-25T14:28:50.612Z,13.00
2019-05-25T14:31:16.826Z,10.93
2019-05-25T14:33:42.967Z,11.95
2019-05-25T14:36:09.106Z,12.88
2019-05-25T14:38:35.200Z,13.67
2019-05-25T14:41:01.416Z,10.78
2019-05-25T14:43:27.525Z,10.35
2019-05-25T14:45:53.715Z,13.10
2019-05-25T14:48:20.059Z,12.90
2019-05-25T14:50:46.273Z,10.03
2019-05-25T14:53:12.709Z,13.60
2019-05-25T14:55:39.084Z,10.37
2019-05-25T14:58:05.194Z,9.77
2019-05-25T15:00:31.463Z,11.57
2019-05-25T15:02:57.680Z,11.18
2019-05-25T15:05:23.883Z,10.27
2019-05-25T15:07:50.416Z,8.73
2019-05-25T15:10:16.809Z,6.57
2019-05-25T15:12:43.009Z,6.63
2019-05-25T15:15:09.528Z,8.78
2019-05-25T15:17:37.458Z,6.10
2019-05-25T15:20:08.504Z,11.55
2019-05-25T15:22:34.802Z,11.63
2019-05-25T15:25:01.114Z,9.70
2019-05-25T15:27:27.247Z,8.03
2019-05-25T15:29:53.648Z,9.63
2019-05-25T15:32:20.772Z,10.05
2019-05-25T15:34:47.242Z,9.35
2019-05-25T15:37:13.344Z,8.87
2019-05-25T15:39:39.579Z,7.25
2019-05-25T15:42:05.894Z,13.43
2019-05-25T15:44:32.178Z,7.72
2019-05-25T15:46:58.366Z,9.38
2019-05-25T15:49:32.918Z,9.70
2019-05-25T15:51:53.058Z,7.75
2019-05-25T15:54:19.217Z,8.58
2019-05-25T15:56:45.455Z,10.07
2019-05-25T15:59:12.772Z,7.87
2019-05-25T16:01:39.036Z,8.10
2019-05-25T16:04:05.361Z,8.90
2019-05-25T16:06:33.437Z,6.72
2019-05-25T16:09:00.929Z,9.10
2019-05-25T16:11:27.162Z,13.18
2019-05-25T16:13:53.367Z,12.43
2019-05-25T16:16:19.551Z,11.13
2019-05-25T16:18:45.795Z,10.48
2019-05-25T16:21:12.167Z,9.63
2019-05-25T16:23:38.361Z,12.00
2019-05-25T16:26:04.604Z,8.80
2019-05-25T16:28:30.725Z,7.58
2019-05-25T16:30:57.014Z,9.35
2019-05-25T16:33:23.232Z,11.78
2019-05-25T16:35:49.461Z,7.28
2019-05-25T16:38:15.768Z,9.90
2019-05-25T16:40:41.987Z,9.38
2019-05-25T16:43:08.061Z,11.97
2019-05-25T16:45:34.404Z,12.63
2019-05-25T16:48:01.258Z,10.00
2019-05-25T16:50:27.494Z,9.25
2019-05-25T16:52:54.115Z,10.48
2019-05-25T16:55:20.376Z,9.90
2019-05-25T16:57:46.818Z,8.30
2019-05-25T17:00:15.223Z,9.40
2019-05-25T17:02:41.717Z,11.60
2019-05-25T17:05:08.175Z,7.62
2019-05-25T17:07:34.632Z,10.65
2019-05-25T17:10:00.835Z,8.40
2019-05-25T17:12:26.975Z,8.08
2019-05-25T17:14:53.193Z,9.10
2019-05-25T17:17:19.314Z,10.47
2019-05-25T17:19:45.617Z,9.48
2019-05-25T17:22:11.741Z,8.20
2019-05-25T17:24:38.063Z,7.57
2019-05-25T17:27:04.429Z,13.32
2019-05-25T17:29:30.549Z,13.83
2019-05-25T17:31:56.826Z,11.57
2019-05-25T17:34:23.138Z,8.15
2019-05-25T17:36:49.490Z,13.80
2019-05-25T17:39:15.658Z,13.73
2019-05-25T17:41:41.808Z,7.40
2019-05-25T17:44:08.161Z,6.90
2019-05-25T17:46:34.652Z,12.13
2019-05-25T17:49:00.945Z,6.90
2019-05-25T17:51:27.434Z,10.10
2019-05-25T17:53:53.813Z,12.70
2019-05-25T17:56:20.315Z,8.43
2019-05-25T17:58:46.684Z,8.23
2019-05-25T18:01:12.821Z,11.33
2019-05-25T18:03:39.104Z,13.00
2019-05-25T18:06:05.454Z,13.57
2019-05-25T18:08:31.692Z,13.73
2019-05-25T18:10:57.909Z,17.95
2019-05-25T18:13:24.385Z,13.30
2019-05-25T18:15:50.908Z,13.33
2019-05-25T18:18:17.476Z,11.75
2019-05-25T18:20:43.695Z,8.63
2019-05-25T18:23:10.232Z,11.15
2019-05-25T18:25:36.733Z,10.63
2019-05-25T18:28:03.522Z,10.40
2019-05-25T18:30:31.733Z,11.17
2019-05-25T18:32:58.021Z,8.60
2019-05-25T18:35:24.361Z,9.87
2019-05-25T18:37:50.696Z,11.03
2019-05-25T18:40:17.207Z,8.50
2019-05-25T18:42:43.437Z,10.20
2019-05-25T18:45:09.793Z,11.70
2019-05-25T18:47:36.082Z,7.23
2019-05-25T18:50:08.159Z,10.77
2019-05-25T18:52:34.672Z,10.45
2019-05-25T18:55:01.127Z,7.83
2019-05-25T18:57:27.269Z,8.55
2019-05-25T18:59:53.387Z,7.83
2019-05-25T19:02:23.396Z,8.23
2019-05-25T19:04:58.954Z,9.00
2019-05-25T19:07:18.068Z,8.10
2019-05-25T19:09:44.533Z,11.13
2019-05-25T19:12:10.823Z,11.60
2019-05-25T19:14:37.203Z,14.37
2019-05-25T19:17:03.591Z,12.67
2019-05-25T19:19:29.911Z,11.10
2019-05-25T19:21:56.143Z,13.57
2019-05-25T19:24:22.358Z,10.97
2019-05-25T19:26:48.648Z,13.60
2019-05-25T19:29:14.781Z,14.17
2019-05-25T19:31:41.191Z,11.10
2019-05-25T19:34:07.588Z,9.87
2019-05-25T19:36:34.031Z,13.10
2019-05-25T19:39:00.390Z,10.53
2019-05-25T19:41:26.631Z,11.63
2019-05-25T19:43:52.771Z,8.50
2019-05-25T19:46:18.988Z,11.77
2019-05-25T19:48:45.439Z,10.90
2019-05-25T19:51:11.956Z,12.70
2019-05-25T19:53:38.294Z,13.47
2019-05-25T19:56:04.611Z,12.00
2019-05-25T19:58:30.957Z,13.20
2019-05-25T20:00:57.211Z,13.20
2019-05-25T20:03:23.668Z,14.03
2019-05-25T20:05:49.985Z,13.10
2019-05-25T20:08:16.228Z,13.07
2019-05-25T20:10:42.467Z,17.13
2019-05-25T20:13:08.578Z,17.77
2019-05-25T20:15:34.713Z,12.47
2019-05-25T20:18:01.011Z,12.90
2019-05-25T20:20:28.522Z,12.33
2019-05-25T20:22:54.952Z,13.23
2019-05-25T20:25:21.374Z,14.37
2019-05-25T20:27:47.502Z,13.37
2019-05-25T20:30:13.830Z,12.93
2019-05-25T20:32:40.201Z,14.97
2019-05-25T20:35:07.614Z,14.87
2019-05-25T20:37:33.843Z,12.20
2019-05-25T20:40:00.115Z,14.70
2019-05-25T20:42:26.420Z,15.27
2019-05-25T20:44:52.766Z,15.23
2019-05-25T20:47:18.966Z,19.13
2019-05-25T20:49:46.261Z,13.40
2019-05-25T20:52:12.439Z,13.80
2019-05-25T20:54:38.738Z,15.90
2019-05-25T20:57:05.201Z,13.87
2019-05-25T20:59:31.688Z,14.40
2019-05-25T21:01:58.098Z,13.97
2019-05-25T21:04:24.338Z,12.87
2019-05-25T21:06:50.600Z,15.77
2019-05-25T21:09:17.008Z,13.90
2019-05-25T21:11:43.257Z,13.87
2019-05-25T21:14:09.493Z,13.53
2019-05-25T21:16:35.875Z,14.70
2019-05-25T21:19:03.216Z,16.83
2019-05-25T21:21:29.361Z,14.30
2019-05-25T21:23:55.612Z,17.93
2019-05-25T21:26:21.814Z,17.50
2019-05-25T21:28:48.182Z,17.63
2019-05-25T21:31:14.421Z,15.80
2019-05-25T21:33:40.654Z,21.47
2019-05-25T21:36:09.216Z,16.10
2019-05-25T21:38:35.249Z,18.70
2019-05-25T21:41:01.635Z,16.90
2019-05-25T21:43:28.016Z,16.57
2019-05-25T21:45:54.138Z,18.97
2019-05-25T21:48:20.563Z,17.00
2019-05-25T21:50:46.728Z,14.10
2019-05-25T21:53:13.012Z,17.03
2019-05-25T21:55:40.233Z,16.03
2019-05-25T21:58:06.506Z,17.30
2019-05-25T22:00:34.494Z,15.83
2019-05-25T22:03:01.063Z,16.30
2019-05-25T22:05:30.621Z,16.87
2019-05-25T22:07:55.780Z,16.70
2019-05-25T22:10:22.180Z,16.80
2019-05-25T22:12:48.564Z,17.37
2019-05-25T22:15:15.249Z,18.37
2019-05-25T22:17:41.510Z,21.90
2019-05-25T22:20:08.258Z,17.10
2019-05-25T22:22:34.466Z,21.60
2019-05-25T22:25:04.291Z,26.40
2019-05-25T22:27:30.438Z,17.77
2019-05-25T22:29:56.746Z,16.60
2019-05-25T22:32:23.029Z,16.20
2019-05-25T22:34:49.163Z,17.63
2019-05-25T22:37:15.279Z,18.00
2019-05-25T22:39:41.600Z,16.80
2019-05-25T22:42:07.825Z,17.37
2019-05-25T22:44:33.959Z,18.57
2019-05-25T22:47:00.139Z,17.63
2019-05-25T22:49:26.273Z,17.63
2019-05-25T22:51:52.392Z,15.63
2019-05-25T22:54:18.896Z,18.47
2019-05-25T22:56:45.290Z,19.03
2019-05-25T22:59:11.823Z,17.97
2019-05-25T23:01:38.241Z,20.03
2019-05-25T23:04:04.575Z,19.37
2019-05-25T23:06:30.800Z,19.80
2019-05-25T23:08:57.023Z,20.23
2019-05-25T23:11:23.477Z,18.47
2019-05-25T23:13:49.823Z,20.73
2019-05-25T23:16:15.926Z,19.03
2019-05-25T23:18:42.194Z,20.90
2019-05-25T23:21:08.517Z,19.03
2019-05-25T23:23:34.767Z,21.27
2019-05-25T23:26:00.913Z,22.30
2019-05-25T23:28:27.103Z,22.77
2019-05-25T23:30:53.409Z,19.57
2019-05-25T23:33:19.608Z,20.30
2019-05-25T23:35:45.873Z,18.90
2019-05-25T23:38:12.114Z,19.90
2019-05-25T23:40:38.200Z,23.80
2019-05-25T23:43:04.430Z,20.77
2019-05-25T23:45:30.661Z,20.23
2019-05-25T23:47:56.764Z,21.77
2019-05-25T23:50:23.194Z,20.13
2019-05-25T23:52:49.686Z,20.90
2019-05-25T23:55:16.356Z,22.17
2019-05-25T23:57:42.590Z,22.30
